Terminal Aerodrome Forecast
Issued by NWS Hastings, NE

Home | Current Version | Previous Version | Text Only | Print | Product List | Glossary On
Versions: 1 2 3 4 5 6 7 8 9 10 11 12 13 14
000
FTUS43 KGID 241120
TAFGRI
TAF
KGRI 241120Z 2412/2512 02015KT P6SM VCSH OVC007
      TEMPO 2412/2414 6SM -RA BR OVC004
     FM241400 02017G24KT P6SM VCSH OVC008
     FM250600 36015KT P6SM OVC003
     FM251100 35014KT P6SM OVC008=

USA.gov is the U.S. government's official web portal to all federal, state and local government web resources and services.